KPKB/PKB METAR and TAF weather

Enter ICAO airport designator
Station Type Date Time Source
KPKB METAR 2022/06/29 00:53 UTC NOAA

KPKB 290053Z 00000KT 10SM CLR 21/15 A3020 RMK AO2 SLP222 T02060150 $


Station Type Date Time Source
KPKB Decoded METAR 2022/06/29 00:53 UTC NOAA

MID-OHIO VALLEY RGNL AIRPORT, WV, United States (KPKB) 39-20N 81-27W
Jun 28, 2022 - 08:53 PM EDT / 2022.06.29 0053 UTC
Wind: Calm:0
Visibility: 10 mile(s):0
Sky conditions: clear
Temperature: 69.1 F (20.6 C)
Dew Point: 59.0 F (15.0 C)
Relative Humidity: 70%
Pressure (altimeter): 30.2 in. Hg (1022 hPa)
ob: KPKB 290053Z 00000KT 10SM CLR 21/15 A3020 RMK AO2 SLP222 T02060150
cycle: 1

Station Type Date Time Source
KPKB TAF 2022/06/28 21:58 UTC NOAA

TAF
AMD KPKB 282056Z 2821/2918 VRB04KT P6SM FEW250
FM290600 00000KT P6SM VCFG SKC
FM291200 00000KT P6SM SKC

Example: see airport list